Accueil
METAR-TAF:

METAR-TAF

Aéroports :

Aéroport de Comiso

Comiso, Italie

latitude: 36-59-30N, longitude: 14-36-25E, altitude: 190 m

Observation

Le bulletin a été fait il y a 33 minutes, à 21:50 UTC
Vent 2 kt de direction variable
Température 7°C
Humidité 87%
Pression 1007 hPa
Visibilité 10 km ou plus

METAR: LICB 032150Z AUTO VRB02KT 9999 NCD 07/05 Q1007

Heure: 23:23 (22:23 UTC)

Prévision

Le bulletin a été fait il y a 2 heures et 23 minutes, à 20:00 UTC
Prévision valable du 03 à 21 UTC au 04 à 06 UTC
Vent 12 kt de ouest
Visibilité 10 km ou plus
Nuages épars à une hauteur de 4000 ft

TAF: LICB 032000Z 0321/0406 28012KT 9999 SCT040

Observations et prévisions météorologiques de plus de 4000 aéroports (messages METAR et TAF).

Les stations disponibles sont représentées par des disques jaunes et rouges sur la carte.

Passer la souris dessus pour voir le nom de la station.

Cliquer dessus pour voir les observations et prévisions météorologiques.

Pour changer de carte: cliquez sur les boutons verts avec une croix noire pour zoomer, sur le bouton vert avec un tiret pour effectuer un zoom arrière, ou sur les flèches vertes pour les cartes adjacentes.


METAR-TAF: